Time;durP1;ratioP1;P1;durP2;ratioP2;P2;SDS_P1;SDS_P2;PMS_P1;PMS_P2;Temp;Humidity;BMP_temperature;BMP_pressure;BME280_temperature;BME280_humidity;BME280_pressure;Samples;Min_cycle;Max_cycle;Signal;HPM_P1;HPM_P2
2023/07/08 00:00:42;;;;;;;4.68;2.33;;;17.00;99.90;;;;;;5054852;28;20055;-85
2023/07/08 00:03:08;;;;;;;5.90;3.10;;;17.00;99.90;;;;;;5051910;28;20127;-84
2023/07/08 00:05:35;;;;;;;3.40;2.50;;;16.90;99.90;;;;;;5050563;28;20514;-85
2023/07/08 00:08:01;;;;;;;7.38;2.47;;;16.90;99.90;;;;;;5034480;28;20044;-85
2023/07/08 00:10:28;;;;;;;6.43;2.67;;;16.90;99.90;;;;;;5033876;28;20054;-85
2023/07/08 00:12:56;;;;;;;4.65;2.42;;;16.80;99.90;;;;;;5032419;28;20087;-85
2023/07/08 00:15:26;;;;;;;6.63;2.45;;;16.80;99.90;;;;;;5050951;28;20123;-85
2023/07/08 00:17:52;;;;;;;6.60;2.67;;;16.70;99.90;;;;;;5049010;28;20126;-84
2023/07/08 00:20:35;;;;;;;4.07;2.55;;;16.70;99.90;;;;;;5050385;28;20052;-85
2023/07/08 00:23:01;;;;;;;5.97;3.15;;;16.70;99.90;;;;;;5068968;28;20119;-85
2023/07/08 00:25:27;;;;;;;5.32;3.45;;;16.60;99.90;;;;;;5036590;28;20140;-85
2023/07/08 00:27:53;;;;;;;6.50;3.00;;;16.60;99.90;;;;;;5054490;28;20048;-85
2023/07/08 00:30:21;;;;;;;4.35;2.65;;;16.60;99.90;;;;;;5035628;28;20464;-85
2023/07/08 00:32:47;;;;;;;3.47;2.40;;;16.50;99.90;;;;;;5054116;28;20696;-86
2023/07/08 00:35:13;;;;;;;5.07;2.58;;;16.50;99.90;;;;;;5051826;28;20039;-86
2023/07/08 00:37:39;;;;;;;5.47;2.78;;;16.40;99.90;;;;;;5037713;28;20044;-85
2023/07/08 00:40:25;;;;;;;9.55;2.75;;;16.40;99.90;;;;;;5052496;28;20131;-85
2023/07/08 00:42:51;;;;;;;3.70;2.50;;;16.40;99.90;;;;;;5070328;28;20534;-86
2023/07/08 00:45:35;;;;;;;5.55;2.65;;;16.30;99.90;;;;;;5037743;28;20131;-85
2023/07/08 00:48:28;;;;;;;5.70;2.75;;;16.30;99.90;;;;;;5051498;28;20036;-85
2023/07/08 00:50:54;;;;;;;3.60;2.50;;;16.20;99.90;;;;;;5053892;28;20119;-85
2023/07/08 00:53:36;;;;;;;4.85;2.50;;;16.20;99.90;;;;;;5053314;28;20109;-85
2023/07/08 00:56:20;;;;;;;3.92;2.53;;;16.20;99.90;;;;;;5051859;28;20049;-85
2023/07/08 00:58:55;;;;;;;4.40;2.35;;;16.10;99.90;;;;;;5054276;28;20133;-85
2023/07/08 01:01:21;;;;;;;3.60;2.60;;;16.10;99.90;;;;;;5069932;28;20032;-86
2023/07/08 01:04:01;;;;;;;3.95;2.13;;;16.10;99.90;;;;;;5053218;28;20127;-86
2023/07/08 01:06:32;;;;;;;4.45;2.50;;;16.00;99.90;;;;;;5036807;28;20099;-85
2023/07/08 01:09:02;;;;;;;6.57;2.47;;;15.90;99.90;;;;;;5051669;28;20032;-85
2023/07/08 01:11:29;;;;;;;5.18;2.97;;;15.90;99.90;;;;;;5053848;28;20216;-85
2023/07/08 01:13:56;;;;;;;9.88;4.18;;;14.70;99.90;;;;;;5051625;28;20053;-85
2023/07/08 01:16:22;;;;;;;6.70;3.28;;;15.90;99.90;;;;;;5053657;28;20040;-86
2023/07/08 01:18:52;;;;;;;4.20;2.90;;;15.90;99.90;;;;;;5019421;28;20170;-86
2023/07/08 01:21:35;;;;;;;5.18;2.78;;;15.80;99.90;;;;;;5052684;28;20098;-85
2023/07/08 01:24:07;;;;;;;5.57;2.83;;;15.80;99.90;;;;;;5053449;28;20056;-85
2023/07/08 01:26:37;;;;;;;5.83;2.80;;;15.70;99.90;;;;;;5051563;28;20305;-86
2023/07/08 01:29:04;;;;;;;5.57;2.90;;;15.70;99.90;;;;;;5036937;28;20279;-86
2023/07/08 01:31:30;;;;;;;6.13;3.47;;;15.70;99.90;;;;;;5051489;28;20055;-86
2023/07/08 01:33:56;;;;;;;4.43;3.13;;;15.60;99.90;;;;;;5052075;28;20053;-86
2023/07/08 01:36:22;;;;;;;5.50;2.97;;;15.60;99.90;;;;;;5036071;28;20074;-85
2023/07/08 01:38:48;;;;;;;6.72;3.13;;;15.60;99.90;;;;;;5034593;28;20094;-85
2023/07/08 01:41:15;;;;;;;5.75;2.88;;;15.50;99.90;;;;;;5052989;28;20041;-86
2023/07/08 01:43:42;;;;;;;5.40;3.28;;;15.60;99.90;;;;;;5017803;28;20040;-85
2023/07/08 01:46:20;;;;;;;3.80;2.97;;;15.50;99.90;;;;;;5036481;28;20052;-85
2023/07/08 01:48:51;;;;;;;3.28;2.70;;;15.50;99.90;;;;;;5051153;28;20045;-85
2023/07/08 01:51:16;;;;;;;4.60;3.17;;;15.50;99.90;;;;;;5052170;28;20051;-85
2023/07/08 01:53:43;;;;;;;4.63;3.22;;;15.40;99.90;;;;;;5052933;28;20048;-86
2023/07/08 01:56:11;;;;;;;12.38;3.50;;;15.40;99.90;;;;;;5034522;28;20788;-85
2023/07/08 01:58:37;;;;;;;8.20;3.50;;;15.40;99.90;;;;;;5036107;28;20050;-85
2023/07/08 02:01:03;;;;;;;4.75;2.70;;;15.40;99.90;;;;;;5034074;28;20123;-85
2023/07/08 02:03:30;;;;;;;6.40;3.30;;;17.50;99.90;;;;;;5052522;28;20043;-85
2023/07/08 02:05:55;;;;;;;5.13;3.17;;;15.40;99.90;;;;;;5034499;28;20127;-85
2023/07/08 02:08:24;;;;;;;4.38;2.75;;;15.30;99.90;;;;;;5069857;28;20079;-85
2023/07/08 02:10:52;;;;;;;6.75;3.25;;;15.30;99.90;;;;;;5052716;28;20440;-85
2023/07/08 02:13:19;;;;;;;3.95;2.40;;;15.30;99.90;;;;;;5050974;28;20067;-85
2023/07/08 02:15:45;;;;;;;6.43;2.95;;;15.30;99.90;;;;;;5053045;28;20127;-85
2023/07/08 02:18:11;;;;;;;5.88;3.35;;;15.30;99.90;;;;;;5051557;28;20465;-85
2023/07/08 02:20:36;;;;;;;4.88;3.17;;;15.20;99.90;;;;;;5036572;28;20044;-85
2023/07/08 02:23:02;;;;;;;6.40;3.45;;;15.20;99.90;;;;;;5057562;28;20055;-86
2023/07/08 02:25:28;;;;;;;9.77;3.05;;;15.20;99.90;;;;;;5041096;28;20055;-85
2023/07/08 02:27:56;;;;;;;7.43;3.50;;;15.20;99.90;;;;;;5045637;28;20052;-85
2023/07/08 02:30:23;;;;;;;10.00;3.63;;;15.20;99.90;;;;;;5042032;28;20041;-86
2023/07/08 02:32:56;;;;;;;5.55;3.72;;;15.20;99.90;;;;;;5021296;28;20052;-86
2023/07/08 02:35:26;;;;;;;;;;;15.10;99.90;;;;;;5034588;28;20403;-85
2023/07/08 02:37:53;;;;;;;5.97;3.25;;;15.10;99.90;;;;;;5053037;28;19928;-85
2023/07/08 02:40:20;;;;;;;4.50;2.95;;;15.10;99.90;;;;;;5051877;28;20048;-86
2023/07/08 02:42:48;;;;;;;6.03;3.47;;;15.10;99.90;;;;;;5018888;28;20421;-86
2023/07/08 02:45:15;;;;;;;4.93;3.50;;;15.00;99.90;;;;;;5035591;28;20036;-85
2023/07/08 02:47:41;;;;;;;5.25;3.85;;;15.00;99.90;;;;;;5047711;28;20048;-86
2023/07/08 02:50:09;;;;;;;8.85;3.38;;;15.00;99.90;;;;;;5051296;28;20094;-85
2023/07/08 02:52:36;;;;;;;4.78;3.67;;;15.10;99.90;;;;;;5048187;28;20079;-85
2023/07/08 02:55:02;;;;;;;13.75;4.30;;;15.00;99.90;;;;;;5034105;28;20048;-86
2023/07/08 02:57:28;;;;;;;5.78;3.92;;;15.00;99.90;;;;;;5050018;28;20470;-85
2023/07/08 02:59:53;;;;;;;6.40;4.10;;;15.00;99.90;;;;;;5032515;28;20083;-85
2023/07/08 03:02:19;;;;;;;6.50;3.88;;;15.00;99.90;;;;;;5050253;28;20050;-85
2023/07/08 03:04:45;;;;;;;5.38;3.72;;;15.00;99.90;;;;;;5048213;28;20849;-84
2023/07/08 03:07:11;;;;;;;8.07;3.85;;;15.10;99.90;;;;;;5033891;28;20044;-85
2023/07/08 03:09:40;;;;;;;7.90;4.20;;;15.10;99.90;;;;;;5014693;28;20036;-86
2023/07/08 03:12:07;;;;;;;7.30;3.90;;;15.10;99.90;;;;;;5050483;28;20127;-86
2023/07/08 03:14:33;;;;;;;6.28;3.50;;;15.10;99.90;;;;;;5049310;28;20084;-85
2023/07/08 03:16:59;;;;;;;7.00;3.90;;;15.10;99.90;;;;;;5048899;28;20080;-86
2023/07/08 03:19:25;;;;;;;7.13;4.00;;;15.10;99.90;;;;;;5049954;28;20044;-86
2023/07/08 03:21:51;;;;;;;10.68;4.40;;;15.20;99.90;;;;;;5048690;28;20101;-85
2023/07/08 03:24:18;;;;;;;4.90;3.70;;;15.20;99.90;;;;;;5050826;28;20398;-85
2023/07/08 03:26:45;;;;;;;10.23;3.60;;;13.40;99.90;;;;;;5048249;28;20052;-85
2023/07/08 03:29:16;;;;;;;4.85;3.53;;;15.20;99.90;;;;;;5034383;28;20044;-85
2023/07/08 03:31:42;;;;;;;5.53;4.28;;;15.20;99.90;;;;;;5049400;28;20467;-85
2023/07/08 03:34:12;;;;;;;5.32;3.50;;;13.80;99.90;;;;;;5049638;28;20052;-86
2023/07/08 03:36:48;;;;;;;5.60;3.60;;;15.20;99.90;;;;;;5050512;28;20044;-86
2023/07/08 03:39:18;;;;;;;7.10;3.67;;;15.20;99.90;;;;;;5031298;28;20052;-85
2023/07/08 03:41:45;;;;;;;5.75;3.83;;;15.20;99.90;;;;;;5034507;28;20473;-85
2023/07/08 03:44:11;;;;;;;4.80;3.70;;;15.20;99.90;;;;;;5047911;28;20036;-86
2023/07/08 03:46:36;;;;;;;6.05;4.07;;;15.20;99.90;;;;;;5033353;28;20499;-85
2023/07/08 03:49:02;;;;;;;7.30;3.70;;;15.20;99.90;;;;;;5049913;28;20048;-86
2023/07/08 03:51:31;;;;;;;8.80;3.95;;;15.20;99.90;;;;;;5049057;28;20402;-85
2023/07/08 03:53:57;;;;;;;6.95;4.38;;;15.20;99.90;;;;;;5033685;28;20045;-85
2023/07/08 03:56:24;;;;;;;7.47;4.53;;;15.20;99.90;;;;;;5047216;28;20044;-86
2023/07/08 03:58:50;;;;;;;7.70;4.30;;;15.30;99.90;;;;;;5053165;28;20091;-85
2023/07/08 04:01:23;;;;;;;8.40;3.85;;;15.30;99.90;;;;;;5069449;28;20123;-86
2023/07/08 04:03:51;;;;;;;6.40;3.50;;;15.40;99.90;;;;;;5053686;28;20123;-86
2023/07/08 04:06:16;;;;;;;5.90;4.20;;;15.30;99.90;;;;;;5052866;28;20044;-83
2023/07/08 04:08:42;;;;;;;5.80;3.78;;;15.40;99.90;;;;;;5035095;28;20126;-84
2023/07/08 04:11:16;;;;;;;6.80;3.42;;;15.50;99.90;;;;;;5053724;28;20044;-83
2023/07/08 04:13:42;;;;;;;7.65;4.07;;;15.50;99.90;;;;;;5051159;28;20040;-83
2023/07/08 04:16:19;;;;;;;8.02;3.95;;;15.60;99.90;;;;;;5036956;28;20593;-84
2023/07/08 04:18:45;;;;;;;6.30;3.67;;;15.60;99.90;;;;;;5051579;28;20044;-84
2023/07/08 04:21:11;;;;;;;6.45;3.80;;;15.70;99.90;;;;;;5019033;28;20053;-83
2023/07/08 04:23:37;;;;;;;7.97;3.95;;;15.70;99.90;;;;;;5052773;28;20097;-84
2023/07/08 04:26:02;;;;;;;4.93;3.90;;;15.80;99.90;;;;;;5034099;28;20127;-83
2023/07/08 04:28:28;;;;;;;6.40;3.65;;;15.80;99.90;;;;;;5003747;28;20041;-83
2023/07/08 04:30:54;;;;;;;5.40;3.58;;;15.90;99.90;;;;;;5050932;28;20237;-83
2023/07/08 04:33:20;;;;;;;5.75;3.90;;;15.90;99.90;;;;;;5052824;28;20420;-83
2023/07/08 04:35:46;;;;;;;6.43;3.65;;;16.00;99.90;;;;;;5018505;28;20040;-84
2023/07/08 04:38:31;;;;;;;5.47;3.78;;;16.00;99.90;;;;;;5035921;28;20049;-83
2023/07/08 04:40:57;;;;;;;7.28;4.82;;;16.00;99.90;;;;;;5036168;28;20377;-84
2023/07/08 04:43:28;;;;;;;4.78;3.40;;;16.10;99.90;;;;;;5017431;28;20048;-84
2023/07/08 04:45:55;;;;;;;6.63;3.78;;;16.10;99.90;;;;;;5037266;28;20524;-83
2023/07/08 04:48:21;;;;;;;7.95;3.67;;;16.20;99.90;;;;;;5050242;28;20106;-84
2023/07/08 04:50:49;;;;;;;6.88;3.85;;;16.20;99.90;;;;;;5052444;28;20056;-84
2023/07/08 04:53:15;;;;;;;6.05;3.70;;;16.30;99.90;;;;;;5051400;28;20079;-84
2023/07/08 04:55:51;;;;;;;7.28;3.80;;;16.30;99.90;;;;;;5051806;28;20394;-83
2023/07/08 04:58:16;;;;;;;5.68;3.83;;;16.40;99.90;;;;;;5052762;28;20458;-84
2023/07/08 05:00:42;;;;;;;5.40;3.85;;;16.40;99.90;;;;;;5033698;28;20045;-84
2023/07/08 05:03:08;;;;;;;4.40;3.47;;;16.50;99.90;;;;;;5052250;28;20036;-84
2023/07/08 05:05:33;;;;;;;8.73;3.80;;;16.60;99.90;;;;;;5050230;28;20084;-84
2023/07/08 05:08:00;;;;;;;4.70;3.25;;;16.60;99.90;;;;;;5035438;28;20052;-84
2023/07/08 05:10:29;;;;;;;5.38;3.17;;;16.70;99.90;;;;;;5050140;28;20052;-85
2023/07/08 05:12:54;;;;;;;4.28;3.25;;;16.80;99.90;;;;;;5051375;28;20048;-84
2023/07/08 05:15:21;;;;;;;5.55;3.05;;;16.90;99.90;;;;;;5051516;28;20527;-84
2023/07/08 05:17:50;;;;;;;7.20;3.80;;;17.00;99.90;;;;;;5033028;28;20041;-84
2023/07/08 05:20:15;;;;;;;5.50;2.88;;;17.10;99.90;;;;;;5035569;28;20052;-85
2023/07/08 05:22:42;;;;;;;7.00;2.85;;;17.10;99.90;;;;;;5049570;28;20051;-84
2023/07/08 05:25:09;;;;;;;4.90;3.10;;;17.20;99.90;;;;;;5018718;28;20045;-84
2023/07/08 05:27:35;;;;;;;5.20;3.00;;;17.30;99.90;;;;;;5050843;28;20114;-84
2023/07/08 05:30:05;;;;;;;5.72;2.90;;;17.40;99.90;;;;;;5050662;28;20551;-85
2023/07/08 05:32:32;;;;;;;6.20;3.50;;;17.40;99.90;;;;;;5051446;28;20056;-84
2023/07/08 05:34:57;;;;;;;5.28;2.70;;;17.50;99.90;;;;;;5067765;28;20056;-85
2023/07/08 05:37:25;;;;;;;8.95;3.35;;;17.60;99.90;;;;;;5051876;28;20557;-86
2023/07/08 05:39:54;;;;;;;5.63;3.17;;;17.70;99.90;;;;;;5017181;28;20178;-85
2023/07/08 05:42:20;;;;;;;7.40;3.85;;;17.80;99.90;;;;;;5035348;28;20044;-85
2023/07/08 05:44:46;;;;;;;6.65;3.10;;;17.80;99.90;;;;;;5034179;28;20051;-84
2023/07/08 05:47:13;;;;;;;4.38;3.30;;;17.90;99.90;;;;;;5050223;28;20052;-85
2023/07/08 05:49:39;;;;;;;7.40;3.15;;;18.00;99.90;;;;;;5051537;28;20515;-85
2023/07/08 05:52:10;;;;;;;7.75;3.58;;;18.10;99.90;;;;;;5049704;28;20063;-85
2023/07/08 05:54:37;;;;;;;6.70;3.17;;;18.20;99.90;;;;;;5035909;28;20044;-83
2023/07/08 05:57:03;;;;;;;5.07;3.15;;;18.30;99.90;;;;;;5033181;28;20051;-84
2023/07/08 05:59:29;;;;;;;5.75;3.03;;;18.40;99.90;;;;;;5034988;28;20032;-86
2023/07/08 06:01:55;;;;;;;5.30;3.05;;;18.40;99.90;;;;;;5033993;28;20557;-86
2023/07/08 06:04:21;;;;;;;4.63;2.97;;;18.50;99.90;;;;;;5000633;28;20041;-87
2023/07/08 06:06:48;;;;;;;4.30;2.85;;;18.60;99.90;;;;;;5018281;28;20059;-85
2023/07/08 06:09:13;;;;;;;6.72;3.08;;;18.70;99.90;;;;;;5032832;28;20037;-83
2023/07/08 06:11:39;;;;;;;8.50;3.75;;;18.80;99.90;;;;;;5051410;28;20052;-84
2023/07/08 06:14:05;;;;;;;4.32;2.78;;;18.80;99.90;;;;;;5048692;28;20040;-84
2023/07/08 06:16:31;;;;;;;4.10;3.10;;;19.00;99.90;;;;;;5034873;28;20049;-83
2023/07/08 06:18:57;;;;;;;7.20;2.90;;;19.00;99.90;;;;;;5032692;28;20496;-83
2023/07/08 06:21:24;;;;;;;4.55;3.13;;;19.10;99.90;;;;;;5033030;28;20052;-82
2023/07/08 06:23:49;;;;;;;5.80;3.05;;;19.20;99.90;;;;;;5034199;28;20040;-83
2023/07/08 06:26:15;;;;;;;4.65;2.53;;;19.30;99.90;;;;;;5032560;28;20507;-83
2023/07/08 06:28:41;;;;;;;4.57;2.53;;;19.40;99.90;;;;;;5034213;28;20044;-84
2023/07/08 06:31:07;;;;;;;3.10;2.40;;;19.60;99.90;;;;;;5032583;28;20052;-84
2023/07/08 06:33:32;;;;;;;3.75;2.65;;;19.40;99.90;;;;;;5051061;28;20130;-84
2023/07/08 06:35:58;;;;;;;4.07;2.28;;;19.70;99.90;;;;;;5032635;28;20373;-83
2023/07/08 06:38:24;;;;;;;4.68;2.42;;;19.70;99.90;;;;;;5033716;28;20136;-82
2023/07/08 06:40:49;;;;;;;4.32;2.45;;;19.80;99.90;;;;;;5050367;28;20044;-86
2023/07/08 06:43:15;;;;;;;2.92;2.03;;;19.90;99.90;;;;;;5032157;28;20094;-85
2023/07/08 06:45:41;;;;;;;2.88;2.40;;;20.00;99.90;;;;;;5050930;28;20053;-85
2023/07/08 06:48:07;;;;;;;4.28;2.40;;;20.10;99.90;;;;;;5048484;28;20527;-86
2023/07/08 06:50:33;;;;;;;5.18;2.22;;;20.20;99.90;;;;;;5050644;28;20037;-87
2023/07/08 06:52:58;;;;;;;6.90;3.20;;;20.30;99.90;;;;;;5048522;28;20235;-88
2023/07/08 06:55:24;;;;;;;4.53;2.22;;;20.40;99.90;;;;;;5033874;28;20044;-86
2023/07/08 06:57:50;;;;;;;3.83;2.10;;;20.50;99.90;;;;;;5033337;28;20048;-86
2023/07/08 07:00:16;;;;;;;3.20;2.17;;;20.60;99.90;;;;;;5032185;28;20047;-86
2023/07/08 07:02:43;;;;;;;3.13;2.08;;;20.70;99.90;;;;;;5000880;28;20040;-87
2023/07/08 07:05:09;;;;;;;4.97;2.20;;;20.80;99.90;;;;;;5031941;28;20049;-86
2023/07/08 07:07:35;;;;;;;3.95;2.08;;;20.90;99.90;;;;;;5050072;28;20094;-87
2023/07/08 07:10:01;;;;;;;2.83;1.60;;;21.00;99.90;;;;;;5014974;28;20080;-87
2023/07/08 07:12:27;;;;;;;5.40;2.28;;;21.10;99.90;;;;;;5049815;28;20491;-87
2023/07/08 07:14:53;;;;;;;3.78;2.25;;;21.20;99.90;;;;;;5049140;28;20094;-87
2023/07/08 07:17:24;;;;;;;3.13;2.03;;;21.30;99.90;;;;;;5032726;28;20158;-87
2023/07/08 07:19:49;;;;;;;3.70;2.35;;;21.40;99.90;;;;;;5049989;28;20040;-87
2023/07/08 07:22:15;;;;;;;5.72;2.00;;;21.50;99.90;;;;;;5031320;28;20123;-87
2023/07/08 07:24:42;;;;;;;6.32;2.05;;;21.60;99.90;;;;;;5050355;28;20094;-88
2023/07/08 07:27:09;;;;;;;3.25;1.90;;;21.70;99.90;;;;;;5031363;28;20123;-88
2023/07/08 07:30:03;;;;;;;3.15;2.13;;;21.80;99.90;;;;;;5033162;28;20044;-88
2023/07/08 07:32:31;;;;;;;4.15;1.98;;;21.90;99.90;;;;;;5029727;28;20072;-87
2023/07/08 07:34:59;;;;;;;3.30;2.15;;;22.00;99.90;;;;;;5048239;28;20083;-87
2023/07/08 07:37:25;;;;;;;5.53;2.33;;;22.10;99.90;;;;;;5033492;28;20075;-87
2023/07/08 07:39:51;;;;;;;2.80;2.00;;;22.20;99.90;;;;;;5031396;28;20121;-87
2023/07/08 07:42:19;;;;;;;5.53;2.28;;;22.40;99.90;;;;;;5033505;28;20428;-87
2023/07/08 07:44:45;;;;;;;3.15;1.88;;;22.50;99.90;;;;;;5048671;28;20094;-87
2023/07/08 07:47:11;;;;;;;4.65;1.90;;;22.60;99.90;;;;;;5052007;28;20037;-86
2023/07/08 07:49:37;;;;;;;3.95;2.00;;;22.70;99.90;;;;;;5017883;28;20143;-87
2023/07/08 07:52:03;;;;;;;2.33;1.70;;;22.70;99.90;;;;;;5016310;28;20079;-87
2023/07/08 07:54:29;;;;;;;4.00;1.80;;;22.80;99.90;;;;;;5050100;28;20041;-88
2023/07/08 07:56:55;;;;;;;6.85;1.88;;;22.90;99.90;;;;;;5032703;28;20044;-88
2023/07/08 07:59:23;;;;;;;5.82;2.35;;;23.10;99.90;;;;;;5019857;28;20044;-88
2023/07/08 08:01:49;;;;;;;2.15;1.70;;;23.10;99.90;;;;;;5036347;28;20041;-87
2023/07/08 08:04:15;;;;;;;3.47;2.00;;;23.20;99.90;;;;;;5040458;28;20056;-87
2023/07/08 08:06:41;;;;;;;3.42;1.92;;;23.30;99.90;;;;;;5041722;28;20045;-88
2023/07/08 08:09:07;;;;;;;3.10;1.67;;;23.50;99.90;;;;;;5026209;28;20060;-88
2023/07/08 08:11:33;;;;;;;3.35;1.88;;;23.60;99.90;;;;;;5060727;28;20044;-87
2023/07/08 08:14:01;;;;;;;2.60;1.88;;;23.60;99.90;;;;;;5058603;28;20538;-89
2023/07/08 08:16:27;;;;;;;3.83;1.98;;;23.70;99.80;;;;;;5060207;28;20040;-88
2023/07/08 08:18:52;;;;;;;2.78;2.05;;;23.70;99.50;;;;;;5033238;28;20047;-86
2023/07/08 08:21:18;;;;;;;3.55;1.98;;;25.00;99.60;;;;;;5018316;28;20048;-90
2023/07/08 08:23:44;;;;;;;3.85;2.05;;;23.90;99.30;;;;;;5000796;28;20448;-86
2023/07/08 08:26:10;;;;;;;12.48;2.90;;;24.00;99.20;;;;;;5031429;28;20060;-83
2023/07/08 08:28:35;;;;;;;6.72;2.25;;;24.10;99.20;;;;;;5032264;28;20045;-84
2023/07/08 08:31:01;;;;;;;5.82;1.88;;;24.20;99.10;;;;;;4998352;28;20045;-86
2023/07/08 08:33:27;;;;;;;3.78;1.90;;;24.30;99.20;;;;;;5015682;28;20056;-85
2023/07/08 08:35:53;;;;;;;3.75;1.85;;;24.40;98.60;;;;;;5047725;28;20055;-86
2023/07/08 08:38:18;;;;;;;3.97;1.83;;;24.50;98.60;;;;;;5049303;28;20139;-87
2023/07/08 08:40:45;;;;;;;5.28;1.75;;;23.70;98.10;;;;;;5048275;28;20112;-91
2023/07/08 08:43:15;;;;;;;2.25;1.65;;;24.80;98.20;;;;;;5034316;28;20045;-88
2023/07/08 08:45:55;;;;;;;3.92;1.27;;;25.00;98.10;;;;;;5036591;28;20044;-88
2023/07/08 08:48:21;;;;;;;3.97;1.73;;;25.10;97.80;;;;;;5053090;28;20341;-89
2023/07/08 08:50:50;;;;;;;3.22;1.60;;;25.20;97.70;;;;;;5021296;28;20449;-87
2023/07/08 08:53:18;;;;;;;2.67;1.48;;;25.30;97.50;;;;;;5052594;28;20135;-86
2023/07/08 08:55:48;;;;;;;3.20;2.30;;;25.50;97.20;;;;;;5052251;28;20514;-87
2023/07/08 08:58:40;;;;;;;2.35;1.73;;;25.60;96.90;;;;;;5035658;28;20047;-84
2023/07/08 09:01:15;;;;;;;5.23;1.80;;;25.80;96.60;;;;;;5051922;28;20396;-85
2023/07/08 09:04:00;;;;;;;4.20;1.58;;;25.90;96.60;;;;;;5053837;28;20044;-88
2023/07/08 09:06:30;;;;;;;3.83;1.50;;;26.00;96.40;;;;;;5051769;28;20067;-85
2023/07/08 09:09:02;;;;;;;2.67;1.60;;;24.50;95.60;;;;;;5051679;28;20040;-86
2023/07/08 09:12:00;;;;;;;3.35;1.40;;;26.30;95.70;;;;;;5035818;28;20076;-86
2023/07/08 09:14:31;;;;;;;3.75;2.63;;;26.40;94.60;;;;;;5051915;28;20783;-88
2023/07/08 09:17:24;;;;;;;2.85;2.03;;;26.50;95.00;;;;;;5054837;28;20044;-88
2023/07/08 09:20:06;;;;;;;3.83;1.90;;;26.60;95.00;;;;;;5052857;28;20368;-87
2023/07/08 09:22:45;;;;;;;;;;;26.70;94.60;;;;;;5052734;28;20090;-88
2023/07/08 09:25:56;;;;;;;2.60;1.52;;;26.80;93.10;;;;;;5037999;28;19963;-88
2023/07/08 09:28:36;;;;;;;2.40;1.80;;;26.90;94.40;;;;;;5031391;28;20453;-88
2023/07/08 09:31:05;;;;;;;2.58;1.50;;;27.00;93.30;;;;;;5034460;28;20195;-88
2023/07/08 09:33:31;;;;;;;4.22;1.60;;;27.10;94.00;;;;;;5035218;28;20049;-89
2023/07/08 09:35:56;;;;;;;3.55;1.48;;;27.30;93.60;;;;;;5032992;28;20071;-87
2023/07/08 09:38:23;;;;;;;3.60;1.90;;;27.40;93.30;;;;;;5018328;28;20042;-88
2023/07/08 09:40:54;;;;;;;3.35;1.98;;;27.40;92.80;;;;;;5017479;28;20037;-87
2023/07/08 09:43:36;;;;;;;3.30;1.45;;;27.50;92.00;;;;;;5034566;28;20415;-88
2023/07/08 09:46:01;;;;;;;2.50;1.50;;;27.60;91.70;;;;;;5051252;28;20044;-89
2023/07/08 09:48:35;;;;;;;2.92;1.48;;;27.70;91.50;;;;;;5032383;28;20487;-90
2023/07/08 09:51:02;;;;;;;2.97;1.70;;;27.80;91.50;;;;;;5051148;28;20045;-92
2023/07/08 09:53:28;;;;;;;2.60;1.70;;;27.90;91.20;;;;;;5050156;28;20135;-90
2023/07/08 09:55:58;;;;;;;1.95;1.42;;;28.00;90.60;;;;;;5051194;28;20080;-89
2023/07/08 09:58:40;;;;;;;2.90;1.58;;;28.10;90.20;;;;;;5051653;28;20130;-91
2023/07/08 10:01:13;;;;;;;4.53;1.65;;;28.20;89.50;;;;;;5050717;28;20049;-91
2023/07/08 10:03:39;;;;;;;2.60;1.70;;;28.20;89.70;;;;;;5052305;28;20487;-91
2023/07/08 10:06:14;;;;;;;3.63;2.00;;;28.30;90.20;;;;;;5033969;28;20121;-91
2023/07/08 10:08:44;;;;;;;5.53;1.77;;;28.40;90.10;;;;;;5052097;28;20047;-90
2023/07/08 10:11:20;;;;;;;3.03;1.38;;;28.50;89.60;;;;;;5034085;28;20052;-92
2023/07/08 10:13:52;;;;;;;2.00;1.63;;;28.60;89.30;;;;;;5051119;28;20106;-91
2023/07/08 10:16:28;;;;;;;3.15;1.65;;;28.70;89.00;;;;;;5054606;28;20511;-90
2023/07/08 10:18:55;;;;;;;7.47;2.17;;;28.80;88.10;;;;;;5055546;28;20079;-91
2023/07/08 10:21:58;;;;;;;2.60;1.70;;;28.90;87.80;;;;;;5044349;28;20596;-91
2023/07/08 10:25:01;;;;;;;4.40;1.58;;;29.10;87.80;;;;;;5059200;28;20087;-92
2023/07/08 10:27:45;;;;;;;2.83;1.38;;;29.20;86.90;;;;;;5038293;28;20045;-90
2023/07/08 10:30:28;;;;;;;5.32;1.73;;;29.30;85.70;;;;;;5038767;28;20078;-92
2023/07/08 10:33:24;;;;;;;3.28;1.65;;;29.40;83.90;;;;;;5037440;28;20048;-90
2023/07/08 10:36:05;;;;;;;2.67;2.00;;;29.40;84.90;;;;;;5038992;28;20060;-91
2023/07/08 10:38:39;;;;;;;2.78;1.88;;;29.50;84.60;;;;;;5055125;28;20039;-90
2023/07/08 10:41:15;;;;;;;4.93;1.88;;;29.60;84.40;;;;;;5033558;28;20049;-92
2023/07/08 10:43:59;;;;;;;3.40;1.92;;;29.80;84.80;;;;;;5051585;28;20040;-91
2023/07/08 10:46:48;;;;;;;4.38;1.85;;;30.00;84.30;;;;;;5051527;28;20051;-92
2023/07/08 10:49:22;;;;;;;2.58;1.60;;;30.10;83.60;;;;;;5049670;28;20044;-89
2023/07/08 10:52:25;;;;;;;2.75;1.75;;;30.30;83.10;;;;;;5034276;28;20051;-93
2023/07/08 10:55:12;;;;;;;3.55;1.90;;;30.40;79.60;;;;;;5052786;28;20052;-90
2023/07/08 10:57:43;;;;;;;2.38;1.50;;;30.50;81.40;;;;;;5049181;28;20083;-90
2023/07/08 11:00:30;;;;;;;3.55;2.08;;;30.50;81.10;;;;;;5049708;28;20345;-85
2023/07/08 11:03:39;;;;;;;3.70;1.92;;;30.60;80.20;;;;;;5048064;28;20045;-85
2023/07/08 11:06:15;;;;;;;3.13;1.73;;;30.70;77.90;;;;;;5047504;28;20041;-87
2023/07/08 11:08:49;;;;;;;2.55;1.77;;;30.70;74.50;;;;;;5049010;28;20132;-86
2023/07/08 11:11:36;;;;;;;6.88;1.92;;;30.70;77.40;;;;;;5048511;28;20055;-89
2023/07/08 11:14:15;;;;;;;3.50;1.63;;;30.70;76.50;;;;;;5032685;28;20402;-89
2023/07/08 11:16:51;;;;;;;6.43;2.08;;;30.60;76.40;;;;;;5048765;28;20185;-86
2023/07/08 11:19:24;;;;;;;6.68;2.13;;;30.70;76.70;;;;;;5048022;28;20135;-88
2023/07/08 11:21:54;;;;;;;3.50;1.60;;;30.80;75.20;;;;;;5050221;28;20518;-88
2023/07/08 11:24:36;;;;;;;3.80;2.03;;;30.80;74.60;;;;;;5048964;28;20040;-91
2023/07/08 11:27:14;;;;;;;3.78;2.03;;;30.90;74.70;;;;;;5050849;28;20125;-90
2023/07/08 11:29:53;;;;;;;4.75;1.77;;;31.00;74.40;;;;;;5039831;28;20044;-89
2023/07/08 11:32:23;;;;;;;4.82;2.75;;;29.80;72.70;;;;;;5054800;28;20064;-90
2023/07/08 11:34:52;;;;;;;6.32;1.95;;;31.00;74.10;;;;;;5061213;28;20056;-95
2023/07/08 11:37:20;;;;;;;4.07;1.67;;;31.00;73.40;;;;;;5045105;28;20048;-95
2023/07/08 11:40:18;;;;;;;7.95;1.90;;;31.20;73.40;;;;;;5053334;28;20040;-96
2023/07/08 11:42:59;;;;;;;3.35;1.88;;;31.30;75.90;;;;;;5079291;28;20060;-96
2023/07/08 11:45:43;;;;;;;5.97;1.92;;;31.50;74.60;;;;;;5044371;28;20037;-95
2023/07/08 11:48:21;;;;;;;3.35;2.55;;;31.60;73.30;;;;;;5046537;28;20032;-95
2023/07/08 11:50:49;;;;;;;2.63;1.98;;;31.70;74.20;;;;;;5081641;28;20113;-95
2023/07/08 11:53:34;;;;;;;3.15;1.70;;;30.30;71.90;;;;;;5067787;28;20041;-96
2023/07/08 11:56:23;;;;;;;3.45;2.30;;;31.80;70.70;;;;;;5061591;28;20060;-94
2023/07/08 11:58:57;;;;;;;2.65;1.75;;;31.70;70.20;;;;;;5043705;28;20104;-96
2023/07/08 12:01:31;;;;;;;2.88;1.77;;;31.80;70.80;;;;;;5051344;28;20063;-94
2023/07/08 12:04:28;;;;;;;3.30;2.00;;;31.80;72.20;;;;;;5033546;28;20131;-94
2023/07/08 12:07:08;;;;;;;5.93;2.38;;;31.90;69.90;;;;;;5052739;28;20106;-94
2023/07/08 12:09:45;;;;;;;4.05;2.42;;;32.00;67.30;;;;;;5051803;28;20104;-94
2023/07/08 12:12:24;;;;;;;3.58;2.35;;;32.40;67.50;;;;;;5064265;28;20037;-95
2023/07/08 12:14:53;;;;;;;4.03;2.20;;;30.40;66.50;;;;;;5064326;28;20098;-96
2023/07/08 12:17:20;;;;;;;2.78;2.00;;;31.80;67.20;;;;;;5059272;28;20032;-95
2023/07/08 12:19:48;;;;;;;3.28;2.20;;;32.00;67.20;;;;;;5047144;28;20388;-95
2023/07/08 12:22:14;;;;;;;2.42;2.15;;;32.00;66.50;;;;;;5062567;28;20040;-94
2023/07/08 12:24:42;;;;;;;3.95;2.40;;;31.90;67.30;;;;;;5047949;28;20071;-93
2023/07/08 12:27:09;;;;;;;3.83;2.03;;;32.30;66.50;;;;;;5047475;28;20048;-96
2023/07/08 12:29:35;;;;;;;5.13;2.20;;;32.20;66.50;;;;;;5027435;28;20103;-91
2023/07/08 12:32:02;;;;;;;3.42;2.10;;;32.40;66.20;;;;;;5065699;28;20049;-93
2023/07/08 12:34:29;;;;;;;2.38;1.88;;;33.10;67.00;;;;;;5031317;28;20159;-92
2023/07/08 12:36:55;;;;;;;3.50;2.10;;;32.70;66.30;;;;;;5049002;28;20361;-92
2023/07/08 12:39:21;;;;;;;3.00;2.10;;;32.80;66.00;;;;;;5017489;28;20131;-91
2023/07/08 12:41:48;;;;;;;3.17;2.10;;;32.80;65.80;;;;;;5032692;28;20040;-92
2023/07/08 12:44:20;;;;;;;3.25;2.28;;;33.00;65.00;;;;;;5065210;28;20045;-92
2023/07/08 12:46:48;;;;;;;8.90;2.42;;;33.00;64.10;;;;;;5047202;28;20045;-91
2023/07/08 12:49:18;;;;;;;3.20;2.17;;;33.10;63.60;;;;;;5031494;28;20076;-91
2023/07/08 12:51:44;;;;;;;6.23;2.33;;;33.20;63.50;;;;;;5044601;28;20079;-93
2023/07/08 12:54:11;;;;;;;4.20;2.28;;;33.10;63.90;;;;;;5059627;28;20036;-93
2023/07/08 12:56:39;;;;;;;4.65;2.20;;;33.30;63.50;;;;;;5042164;28;20056;-92
2023/07/08 12:59:07;;;;;;;4.32;2.53;;;33.20;62.70;;;;;;5056105;28;20049;-92
2023/07/08 13:01:34;;;;;;;3.30;2.15;;;33.10;63.00;;;;;;5056375;28;20041;-93
2023/07/08 13:04:04;;;;;;;5.00;2.30;;;33.10;62.70;;;;;;5039340;28;20040;-92